Time;durP1;ratioP1;P1;durP2;ratioP2;P2;SDS_P1;SDS_P2;PMS_P1;PMS_P2;Temp;Humidity;BMP_temperature;BMP_pressure;BME280_temperature;BME280_humidity;BME280_pressure;Samples;Min_cycle;Max_cycle;Signal;HPM_P1;HPM_P2
2023/06/14 00:02:08;;;;;;;;;;;;;;;15.76;55.82;100399.91;5056758;28;1139;-57
2023/06/14 00:04:34;;;;;;;;;;;;;;;15.72;55.68;100405.94;5057231;28;1176;-56
2023/06/14 00:07:00;;;;;;;;;;;;;;;15.70;55.63;100408.13;5056560;28;1147;-57
2023/06/14 00:09:25;;;;;;;;;;;;;;;16.93;56.91;100406.84;5045714;28;1120;-56
2023/06/14 00:11:51;;;;;;;;;;;;;;;17.06;57.18;100410.06;5041367;28;1148;-56
2023/06/14 00:14:16;;;;;;;;;;;;;;;16.53;57.59;100407.88;5056805;28;1499;-56
2023/06/14 00:16:44;;;;;;;;;;;;;;;16.28;57.06;100406.88;5056438;28;1153;-57
2023/06/14 00:19:10;;;;;;;;;;;;;;;16.18;56.51;100406.94;5055706;28;1902;-56
2023/06/14 00:21:38;;;;;;;;;;;;;;;16.04;56.31;100404.78;5043664;28;1067;-57
2023/06/14 00:24:04;;;;;;;;;;;;;;;15.96;56.06;100404.53;5056415;28;1095;-57
2023/06/14 00:26:30;;;;;;;;;;;;;;;15.89;55.90;100404.81;5039227;28;1226;-57
2023/06/14 00:28:56;;;;;;;;;;;;;;;15.80;56.07;100401.00;5047456;28;1124;-57
2023/06/14 00:31:22;;;;;;;;;;;;;;;15.74;55.84;100409.22;5052077;28;1048;-55
2023/06/14 00:33:48;;;;;;;;;;;;;;;15.77;55.76;100407.00;5031399;28;1628;-53
2023/06/14 00:36:13;;;;;;;;;;;;;;;16.93;56.88;100409.59;5056454;28;1103;-54
2023/06/14 00:38:39;;;;;;;;;;;;;;;17.04;57.14;100413.09;5056212;28;1977;-53
2023/06/14 00:41:04;;;;;;;;;;;;;;;16.49;57.62;100410.38;5056446;28;1193;-56
2023/06/14 00:43:30;;;;;;;;;;;;;;;16.28;56.99;100401.41;5038355;28;1335;-55
2023/06/14 00:45:55;;;;;;;;;;;;;;;16.17;56.71;100405.28;5055843;28;1130;-56
2023/06/14 00:48:21;;;;;;;;;;;;;;;16.02;56.59;100409.72;5027600;28;1249;-56
2023/06/14 00:50:48;;;;;;;;;;;;;;;15.95;56.33;100400.97;5040949;28;1164;-56
2023/06/14 00:53:15;;;;;;;;;;;;;;;15.91;56.18;100405.38;5038071;28;1044;-55
2023/06/14 00:55:41;;;;;;;;;;;;;;;15.88;55.74;100405.94;5051334;28;1183;-56
2023/06/14 00:58:06;;;;;;;;;;;;;;;15.83;55.76;100414.16;5048363;28;1914;-56
2023/06/14 01:00:32;;;;;;;;;;;;;;;15.79;55.43;100410.31;5056043;28;1036;-55
2023/06/14 01:02:57;;;;;;;;;;;;;;;16.41;57.04;100410.94;5056699;28;1124;-53
2023/06/14 01:05:23;;;;;;;;;;;;;;;17.20;56.69;100411.06;5038057;28;1080;-56
2023/06/14 01:07:51;;;;;;;;;;;;;;;16.53;57.37;100408.69;5038003;28;1648;-56
2023/06/14 01:10:17;;;;;;;;;;;;;;;16.25;57.23;100407.47;5037791;28;1168;-56
2023/06/14 01:12:55;;;;;;;;;;;;;;;16.14;56.68;100414.88;5039798;28;1102;-55
2023/06/14 01:15:21;;;;;;;;;;;;;;;16.08;56.38;100410.53;5060083;28;1127;-56
2023/06/14 01:17:51;;;;;;;;;;;;;;;15.94;56.18;100401.25;5042392;28;1910;-57
2023/06/14 01:20:17;;;;;;;;;;;;;;;15.87;55.96;100398.81;5019102;28;1194;-56
2023/06/14 01:22:50;;;;;;;;;;;;;;;15.81;55.96;100403.47;5053523;28;1055;-52
2023/06/14 01:25:16;;;;;;;;;;;;;;;15.77;55.90;100404.25;5042468;28;1111;-54
2023/06/14 01:27:42;;;;;;;;;;;;;;;15.72;55.51;100400.47;5060025;28;1035;-53
2023/06/14 01:30:07;;;;;;;;;;;;;;;15.80;56.15;100406.50;5051996;28;1060;-50
2023/06/14 01:32:33;;;;;;;;;;;;;;;17.06;56.70;100407.31;5035617;28;1048;-54
2023/06/14 01:35:00;;;;;;;;;;;;;;;16.91;57.39;100402.75;5022532;28;1124;-54
2023/06/14 01:37:27;;;;;;;;;;;;;;;16.41;57.52;100406.28;5036214;28;1914;-55
2023/06/14 01:39:53;;;;;;;;;;;;;;;16.22;56.91;100400.59;5041568;28;1040;-53
2023/06/14 01:42:18;;;;;;;;;;;;;;;16.16;56.48;100400.88;5059427;28;1108;-55
2023/06/14 01:44:44;;;;;;;;;;;;;;;16.05;56.39;100411.09;5051638;28;897;-48
2023/06/14 01:47:09;;;;;;;;;;;;;;;15.96;56.26;100399.03;5047343;28;1325;-52
2023/06/14 01:49:35;;;;;;;;;;;;;;;15.95;55.56;100403.72;5045639;28;1183;-56
2023/06/14 01:52:01;;;;;;;;;;;;;;;15.81;55.88;100402.63;5041275;28;1075;-53
2023/06/14 01:54:27;;;;;;;;;;;;;;;15.81;55.34;100408.97;5041243;28;1189;-55
2023/06/14 01:56:52;;;;;;;;;;;;;;;15.67;55.46;100416.91;5052256;28;890;-53
2023/06/14 01:59:18;;;;;;;;;;;;;;;15.68;55.60;100404.84;5034393;28;1922;-56
2023/06/14 02:01:46;;;;;;;;;;;;;;;16.88;56.91;100419.78;5040517;28;1108;-57
2023/06/14 02:04:11;;;;;;;;;;;;;;;16.91;57.10;100402.75;5059427;28;1156;-56
2023/06/14 02:06:37;;;;;;;;;;;;;;;16.43;57.16;100406.81;5058900;28;1329;-56
2023/06/14 02:09:02;;;;;;;;;;;;;;;16.22;57.08;100405.28;5059236;28;894;-53
2023/06/14 02:11:28;;;;;;;;;;;;;;;16.06;56.82;100402.59;5058756;28;1289;-52
2023/06/14 02:13:55;;;;;;;;;;;;;;;16.01;56.41;100402.59;5058958;28;1295;-53
2023/06/14 02:16:20;;;;;;;;;;;;;;;15.87;56.14;100398.81;5058976;28;1278;-52
2023/06/14 02:18:47;;;;;;;;;;;;;;;15.82;56.00;100405.13;5041179;28;1910;-52
2023/06/14 02:21:12;;;;;;;;;;;;;;;15.75;55.69;100415.50;5058527;28;1245;-49
2023/06/14 02:23:38;;;;;;;;;;;;;;;15.81;55.82;100413.59;5058382;28;1210;-52
2023/06/14 02:26:03;;;;;;;;;;;;;;;17.05;56.69;100414.72;5059030;28;1215;-51
2023/06/14 02:28:29;;;;;;;;;;;;;;;16.56;57.45;100412.81;5055729;28;1559;-54
2023/06/14 02:30:55;;;;;;;;;;;;;;;16.23;57.36;100415.16;5054891;28;1686;-54
2023/06/14 02:33:22;;;;;;;;;;;;;;;16.13;56.59;100421.50;5053228;28;1153;-51
2023/06/14 02:35:47;;;;;;;;;;;;;;;16.01;56.57;100413.56;5048443;28;1354;-55
2023/06/14 02:38:13;;;;;;;;;;;;;;;15.97;55.98;100420.69;5057096;28;1968;-57
2023/06/14 02:40:42;;;;;;;;;;;;;;;15.82;56.06;100423.47;5058457;28;1106;-50
2023/06/14 02:43:07;;;;;;;;;;;;;;;15.82;55.90;100428.97;5032103;28;1084;-55
2023/06/14 02:45:33;;;;;;;;;;;;;;;16.15;56.82;100419.28;5052161;28;1136;-48
2023/06/14 02:47:58;;;;;;;;;;;;;;;17.37;56.22;100427.13;5040499;28;1362;-47
2023/06/14 02:50:24;;;;;;;;;;;;;;;16.67;57.04;100421.81;5037822;28;1309;-47
2023/06/14 02:52:50;;;;;;;;;;;;;;;16.37;56.90;100421.69;5040018;28;1054;-50
2023/06/14 02:55:15;;;;;;;;;;;;;;;16.14;56.74;100436.84;5058284;28;1219;-55
2023/06/14 02:57:41;;;;;;;;;;;;;;;16.03;56.32;100430.59;5029704;28;1906;-52
2023/06/14 03:00:10;;;;;;;;;;;;;;;15.97;56.00;100431.66;5038939;28;1518;-58
2023/06/14 03:02:36;;;;;;;;;;;;;;;15.87;56.15;100432.50;5040193;28;1168;-61
2023/06/14 03:05:02;;;;;;;;;;;;;;;15.81;56.01;100427.31;5039806;28;1219;-58
2023/06/14 03:07:29;;;;;;;;;;;;;;;15.73;55.92;100434.97;5040210;28;1126;-58
2023/06/14 03:09:56;;;;;;;;;;;;;;;15.73;55.46;100429.50;5039809;28;1346;-56
2023/06/14 03:12:23;;;;;;;;;;;;;;;15.65;55.40;100438.25;5040171;28;1230;-58
2023/06/14 03:14:50;;;;;;;;;;;;;;;15.68;55.63;100437.75;5057438;28;1156;-57
2023/06/14 03:17:19;;;;;;;;;;;;;;;16.98;56.55;100440.88;5057956;28;1571;-58
2023/06/14 03:19:45;;;;;;;;;;;;;;;17.00;56.96;100438.66;5057746;28;1995;-58
2023/06/14 03:22:12;;;;;;;;;;;;;;;16.43;57.20;100442.50;5047985;28;886;-58
2023/06/14 03:24:39;;;;;;;;;;;;;;;16.26;56.73;100442.03;5035850;28;1151;-55
2023/06/14 03:27:12;;;;;;;;;;;;;;;16.13;56.59;100448.94;5037381;28;1322;-56
2023/06/14 03:29:41;;;;;;;;;;;;;;;15.99;56.51;100451.44;5039378;28;1158;-57
2023/06/14 03:32:07;;;;;;;;;;;;;;;15.99;55.77;100448.69;5039844;28;1215;-53
2023/06/14 03:34:38;;;;;;;;;;;;;;;15.85;55.97;100447.59;5025132;28;938;-50
2023/06/14 03:37:04;;;;;;;;;;;;;;;15.83;55.71;100456.09;5039875;28;1219;-47
2023/06/14 03:39:30;;;;;;;;;;;;;;;15.87;56.07;100450.91;5036349;28;1914;-50
2023/06/14 03:41:55;;;;;;;;;;;;;;;17.14;56.62;100449.84;5035252;28;1362;-51
2023/06/14 03:44:21;;;;;;;;;;;;;;;16.85;57.11;100451.38;5026558;28;1180;-49
2023/06/14 03:46:47;;;;;;;;;;;;;;;16.40;57.15;100462.28;5035721;28;1457;-50
2023/06/14 03:49:13;;;;;;;;;;;;;;;16.24;56.93;100457.94;5035196;28;1434;-49
2023/06/14 03:51:39;;;;;;;;;;;;;;;16.15;56.28;100452.19;5036475;28;1561;-50
2023/06/14 03:54:05;;;;;;;;;;;;;;;16.06;56.35;100460.19;5039051;28;1612;-55
2023/06/14 03:56:31;;;;;;;;;;;;;;;15.98;55.94;100457.19;5056579;28;1191;-65
2023/06/14 03:58:57;;;;;;;;;;;;;;;15.87;56.10;100457.19;5038767;28;1985;-57
2023/06/14 04:01:29;;;;;;;;;;;;;;;15.82;55.98;100465.44;5038843;28;1230;-58
2023/06/14 04:03:57;;;;;;;;;;;;;;;15.79;55.79;100457.75;5038908;28;1212;-59
2023/06/14 04:06:32;;;;;;;;;;;;;;;15.68;55.86;100459.66;5038438;28;1887;-62
2023/06/14 04:09:01;;;;;;;;;;;;;;;15.92;56.45;100464.56;5038446;28;1138;-62
2023/06/14 04:11:27;;;;;;;;;;;;;;;17.25;56.45;100459.66;5027340;28;1136;-58
2023/06/14 04:13:53;;;;;;;;;;;;;;;16.73;57.18;100464.59;5055452;28;1210;-57
2023/06/14 04:16:20;;;;;;;;;;;;;;;16.38;57.16;100464.50;5038663;28;1135;-58
2023/06/14 04:18:48;;;;;;;;;;;;;;;16.22;56.89;100463.69;5038694;28;1985;-63
2023/06/14 04:21:14;;;;;;;;;;;;;;;16.10;56.54;100459.63;5038182;28;1103;-60
2023/06/14 04:23:43;;;;;;;;;;;;;;;15.97;56.43;100461.84;5025395;28;1166;-61
2023/06/14 04:26:10;;;;;;;;;;;;;;;15.96;56.17;100454.69;5038506;28;1342;-61
2023/06/14 04:28:40;;;;;;;;;;;;;;;15.87;56.03;100461.88;5050154;28;1195;-60
2023/06/14 04:31:08;;;;;;;;;;;;;;;15.81;55.78;100468.44;5032364;28;1297;-60
2023/06/14 04:33:42;;;;;;;;;;;;;;;15.73;55.95;100473.34;5031511;28;1159;-62
2023/06/14 04:36:17;;;;;;;;;;;;;;;15.70;55.70;100468.44;5033274;28;1437;-58
2023/06/14 04:38:46;;;;;;;;;;;;;;;15.70;55.62;100476.66;5038750;28;1919;-59
2023/06/14 04:41:12;;;;;;;;;;;;;;;15.68;55.51;100484.34;5035468;28;1179;-57
2023/06/14 04:43:38;;;;;;;;;;;;;;;15.91;56.26;100479.41;5028371;28;1220;-60
2023/06/14 04:46:05;;;;;;;;;;;;;;;17.21;56.33;100497.88;5034634;28;1175;-62
2023/06/14 04:48:32;;;;;;;;;;;;;;;16.80;57.32;100500.81;5018292;28;1193;-62
2023/06/14 04:50:57;;;;;;;;;;;;;;;16.46;57.30;100500.69;5035249;28;1183;-59
2023/06/14 04:53:23;;;;;;;;;;;;;;;16.22;57.05;100512.28;5056404;28;1079;-58
2023/06/14 04:55:51;;;;;;;;;;;;;;;16.31;57.58;100501.53;5056253;28;1179;-58
2023/06/14 04:58:18;;;;;;;;;;;;;;;16.68;56.36;100503.09;5026985;28;1918;-60
2023/06/14 05:00:43;;;;;;;;;;;;;;;16.24;54.33;100505.41;5035775;28;1111;-59
2023/06/14 05:03:12;;;;;;;;;;;;;;;15.97;53.36;100504.91;5038062;28;1227;-60
2023/06/14 05:05:41;;;;;;;;;;;;;;;15.90;51.76;100506.00;5038073;28;1380;-60
2023/06/14 05:08:07;;;;;;;;;;;;;;;15.86;51.15;100504.09;5037900;28;1144;-59
2023/06/14 05:10:34;;;;;;;;;;;;;;;15.78;50.49;100510.94;5032726;28;1221;-62
2023/06/14 05:13:00;;;;;;;;;;;;;;;16.75;53.05;100498.91;5030449;28;1120;-60
2023/06/14 05:15:26;;;;;;;;;;;;;;;16.18;52.82;100511.19;5032660;28;1372;-62
2023/06/14 05:17:55;;;;;;;;;;;;;;;16.05;51.66;100513.38;5035820;28;1979;-58
2023/06/14 05:20:22;;;;;;;;;;;;;;;15.97;50.24;100510.38;5035821;28;1183;-61
2023/06/14 05:22:49;;;;;;;;;;;;;;;15.97;50.24;100505.72;5050004;28;905;-60
2023/06/14 05:25:15;;;;;;;;;;;;;;;16.37;51.94;100514.97;5048534;28;1048;-58
2023/06/14 05:27:41;;;;;;;;;;;;;;;16.21;50.95;100511.44;5049766;28;1046;-60
2023/06/14 05:30:08;;;;;;;;;;;;;;;15.98;50.37;100518.34;5055727;28;1115;-58
2023/06/14 05:32:33;;;;;;;;;;;;;;;15.93;49.61;100518.34;5055689;28;1078;-59
2023/06/14 05:34:59;;;;;;;;;;;;;;;16.00;49.20;100527.09;5030781;28;895;-60
2023/06/14 05:37:25;;;;;;;;;;;;;;;16.99;51.56;100525.75;5049710;28;1064;-59
2023/06/14 05:39:50;;;;;;;;;;;;;;;16.39;51.29;100529.22;5055586;28;1979;-60
2023/06/14 05:42:16;;;;;;;;;;;;;;;16.35;50.14;100528.13;5055379;28;1128;-59
2023/06/14 05:44:41;;;;;;;;;;;;;;;16.18;49.77;100535.88;5048959;28;1056;-59
2023/06/14 05:47:07;;;;;;;;;;;;;;;16.09;49.23;100535.63;5050699;28;965;-60
2023/06/14 05:49:32;;;;;;;;;;;;;;;16.04;48.74;100532.88;5055209;28;1313;-60
2023/06/14 05:51:58;;;;;;;;;;;;;;;16.01;48.41;100534.22;5055444;28;1135;-59
2023/06/14 05:54:23;;;;;;;;;;;;;;;15.96;48.27;100534.22;5055993;28;1087;-59
2023/06/14 05:56:48;;;;;;;;;;;;;;;16.65;49.68;100542.06;5055561;28;1079;-57
2023/06/14 05:59:14;;;;;;;;;;;;;;;16.24;49.75;100535.59;5050647;28;1979;-57
2023/06/14 06:01:40;;;;;;;;;;;;;;;16.24;49.05;100546.56;5052051;28;1095;-57
2023/06/14 06:04:06;;;;;;;;;;;;;;;16.16;48.62;100549.03;5058731;28;1115;-61
2023/06/14 06:06:32;;;;;;;;;;;;;;;16.15;47.96;100547.41;5059123;28;1103;-61
2023/06/14 06:08:57;;;;;;;;;;;;;;;16.08;47.91;100548.50;5058804;28;1168;-61
2023/06/14 06:11:23;;;;;;;;;;;;;;;16.82;49.48;100549.97;5046225;28;915;-61
2023/06/14 06:13:48;;;;;;;;;;;;;;;16.25;50.02;100550.94;5057863;28;1052;-55
2023/06/14 06:16:14;;;;;;;;;;;;;;;16.31;48.84;100543.50;5059068;28;1219;-61
2023/06/14 06:18:40;;;;;;;;;;;;;;;16.16;48.60;100547.13;5058689;28;1938;-61
2023/06/14 06:21:05;;;;;;;;;;;;;;;16.13;48.46;100547.69;5058652;28;1040;-61
2023/06/14 06:23:31;;;;;;;;;;;;;;;16.14;47.90;100543.81;5058347;28;1012;-61
2023/06/14 06:25:56;;;;;;;;;;;;;;;16.00;48.00;100545.47;5058630;28;1031;-61
2023/06/14 06:28:22;;;;;;;;;;;;;;;16.41;48.43;100548.16;5058396;28;1226;-61
2023/06/14 06:30:47;;;;;;;;;;;;;;;16.55;49.67;100548.41;5058551;28;1199;-61
2023/06/14 06:33:13;;;;;;;;;;;;;;;16.36;49.19;100550.94;5058457;28;1171;-61
2023/06/14 06:35:39;;;;;;;;;;;;;;;16.24;48.66;100546.56;5058548;28;900;-60
2023/06/14 06:38:05;;;;;;;;;;;;;;;16.22;48.19;100551.50;5052134;28;1898;-59
2023/06/14 06:40:30;;;;;;;;;;;;;;;16.21;47.77;100547.09;5038413;28;1080;-59
2023/06/14 06:42:56;;;;;;;;;;;;;;;16.15;47.67;100544.66;5038738;28;1128;-59
2023/06/14 06:45:25;;;;;;;;;;;;;;;16.03;47.74;100540.28;5020820;28;1385;-60
2023/06/14 06:47:51;;;;;;;;;;;;;;;16.03;47.53;100558.63;5051247;28;1191;-59
2023/06/14 06:50:18;;;;;;;;;;;;;;;16.03;47.18;100547.66;5038409;28;1191;-59
2023/06/14 06:52:45;;;;;;;;;;;;;;;16.12;46.97;100545.19;5044667;28;1150;-60
2023/06/14 06:55:11;;;;;;;;;;;;;;;16.87;48.92;100541.69;5057984;28;1140;-59
2023/06/14 06:57:36;;;;;;;;;;;;;;;16.41;49.14;100549.00;5044417;28;1002;-59
2023/06/14 07:00:05;;;;;;;;;;;;;;;16.33;48.49;100540.50;5044109;28;1910;-60
2023/06/14 07:02:30;;;;;;;;;;;;;;;16.28;47.95;100537.78;5044563;28;973;-60
2023/06/14 07:04:56;;;;;;;;;;;;;;;16.26;47.80;100543.53;5057290;28;1115;-60
2023/06/14 07:07:21;;;;;;;;;;;;;;;16.15;47.63;100548.22;5057772;28;1103;-60
2023/06/14 07:09:47;;;;;;;;;;;;;;;16.16;47.35;100543.53;5057522;28;1220;-60
2023/06/14 07:12:13;;;;;;;;;;;;;;;16.77;48.44;100546.16;5050110;28;1010;-60
2023/06/14 07:14:38;;;;;;;;;;;;;;;16.56;48.81;100545.41;5051440;28;1052;-60
2023/06/14 07:17:04;;;;;;;;;;;;;;;16.31;48.82;100549.00;5043854;28;1010;-60
2023/06/14 07:19:31;;;;;;;;;;;;;;;16.23;48.08;100544.09;5039566;28;1975;-60
2023/06/14 07:21:58;;;;;;;;;;;;;;;17.01;49.01;100544.69;5057271;28;1047;-59
2023/06/14 07:24:23;;;;;;;;;;;;;;;16.56;49.08;100550.88;5042948;28;955;-59
2023/06/14 07:26:49;;;;;;;;;;;;;;;16.35;48.81;100552.84;5044650;28;1068;-59
2023/06/14 07:29:14;;;;;;;;;;;;;;;16.35;48.32;100544.59;5057302;28;1092;-55
2023/06/14 07:31:40;;;;;;;;;;;;;;;16.41;47.62;100548.16;5057168;28;1071;-55
2023/06/14 07:34:05;;;;;;;;;;;;;;;16.17;47.48;100528.72;5057229;28;1019;-57
2023/06/14 07:36:31;;;;;;;;;;;;;;;16.19;47.50;100540.25;5050287;28;968;-57
2023/06/14 07:38:56;;;;;;;;;;;;;;;16.30;47.22;100547.38;5050749;28;1969;-55
2023/06/14 07:41:22;;;;;;;;;;;;;;;16.22;47.02;100545.19;5056608;28;1178;-57
2023/06/14 07:43:47;;;;;;;;;;;;;;;16.46;47.66;100544.59;5056798;28;1078;-56
2023/06/14 07:46:14;;;;;;;;;;;;;;;16.69;48.73;100543.97;5056868;28;1139;-56
2023/06/14 07:48:40;;;;;;;;;;;;;;;16.54;48.21;100533.06;5043403;28;1244;-56
2023/06/14 07:51:05;;;;;;;;;;;;;;;16.38;48.16;100538.59;5043996;28;1029;-57
2023/06/14 07:53:31;;;;;;;;;;;;;;;16.32;47.65;100539.69;5056216;28;1156;-56
2023/06/14 07:55:56;;;;;;;;;;;;;;;16.35;47.33;100543.78;5037095;28;1100;-58
2023/06/14 07:58:23;;;;;;;;;;;;;;;16.43;47.44;100545.97;5050491;28;1886;-59
2023/06/14 08:00:49;;;;;;;;;;;;;;;16.81;48.68;100540.91;5056357;28;1075;-59
2023/06/14 08:03:15;;;;;;;;;;;;;;;16.51;48.63;100552.78;5056311;28;1131;-62
2023/06/14 08:05:41;;;;;;;;;;;;;;;16.40;48.41;100550.09;5056681;28;1122;-59
2023/06/14 08:08:06;;;;;;;;;;;;;;;16.35;48.04;100554.78;5056669;28;1093;-58
2023/06/14 08:10:31;;;;;;;;;;;;;;;16.40;47.38;100555.56;5055835;28;1115;-58
2023/06/14 08:12:57;;;;;;;;;;;;;;;16.37;47.12;100556.13;5056661;28;1071;-57
2023/06/14 08:15:22;;;;;;;;;;;;;;;16.25;46.88;100561.09;5056117;28;1048;-55
2023/06/14 08:17:48;;;;;;;;;;;;;;;16.28;46.91;100549.56;5056552;28;1917;-59
2023/06/14 08:20:16;;;;;;;;;;;;;;;16.24;47.06;100559.44;5056325;28;1278;-57
2023/06/14 08:22:42;;;;;;;;;;;;;;;16.99;47.76;100553.22;5055768;28;1068;-57
2023/06/14 08:25:08;;;;;;;;;;;;;;;16.60;48.72;100559.38;5055560;28;1194;-57
2023/06/14 08:27:33;;;;;;;;;;;;;;;16.55;48.20;100556.63;5056254;28;1426;-57
2023/06/14 08:29:58;;;;;;;;;;;;;;;16.32;47.96;100556.13;5056204;28;1143;-57
2023/06/14 08:32:24;;;;;;;;;;;;;;;16.37;47.65;100558.88;5056165;28;1099;-57
2023/06/14 08:34:50;;;;;;;;;;;;;;;16.33;47.13;100560.53;5055301;28;1063;-57
2023/06/14 08:37:15;;;;;;;;;;;;;;;16.37;47.09;100564.38;5056297;28;1123;-57
2023/06/14 08:39:41;;;;;;;;;;;;;;;16.28;46.87;100562.47;5055612;28;1968;-57
2023/06/14 08:42:07;;;;;;;;;;;;;;;16.23;46.93;100557.81;5056271;28;1112;-59
2023/06/14 08:44:32;;;;;;;;;;;;;;;16.20;46.83;100558.34;5055870;28;1152;-59
2023/06/14 08:46:59;;;;;;;;;;;;;;;16.28;46.68;100556.97;5055487;28;1076;-59
2023/06/14 08:49:24;;;;;;;;;;;;;;;16.18;46.83;100555.88;5055535;28;1235;-58
2023/06/14 08:51:51;;;;;;;;;;;;;;;17.03;47.69;100562.53;5056483;28;1109;-59
2023/06/14 08:54:20;;;;;;;;;;;;;;;16.63;48.26;100555.25;5038096;28;1068;-58
2023/06/14 08:56:48;;;;;;;;;;;;;;;16.40;47.88;100552.84;5055639;28;1132;-57
2023/06/14 08:59:13;;;;;;;;;;;;;;;16.32;47.71;100555.31;5042730;28;1976;-55
2023/06/14 09:01:39;;;;;;;;;;;;;;;16.29;47.31;100548.47;5038390;28;1048;-60
2023/06/14 09:04:08;;;;;;;;;;;;;;;16.37;46.89;100545.16;5038811;28;1136;-58
2023/06/14 09:06:33;;;;;;;;;;;;;;;16.26;47.06;100535.31;5055021;28;1001;-58
2023/06/14 09:08:59;;;;;;;;;;;;;;;16.23;47.07;100530.38;5042447;28;1124;-58
2023/06/14 09:11:26;;;;;;;;;;;;;;;16.24;46.64;100526.53;5055661;28;1124;-56
2023/06/14 09:13:52;;;;;;;;;;;;;;;16.14;46.78;100523.81;5056031;28;1048;-58
2023/06/14 09:16:17;;;;;;;;;;;;;;;16.22;46.60;100524.06;5055501;28;1167;-56
2023/06/14 09:18:47;;;;;;;;;;;;;;;17.13;47.84;100519.66;5055390;28;1910;-56
2023/06/14 09:21:13;;;;;;;;;;;;;;;16.54;48.72;100524.81;5055946;28;1060;-56
2023/06/14 09:23:39;;;;;;;;;;;;;;;16.50;48.16;100507.25;5055401;28;1128;-55
2023/06/14 09:26:12;;;;;;;;;;;;;;;16.39;47.78;100514.69;5055465;28;1156;-55
2023/06/14 09:28:44;;;;;;;;;;;;;;;16.47;47.50;100527.03;5055528;28;1007;-56
2023/06/14 09:31:11;;;;;;;;;;;;;;;16.31;47.52;100524.31;5055491;28;1124;-55
2023/06/14 09:33:36;;;;;;;;;;;;;;;16.29;47.35;100528.44;5057237;28;1032;-55
2023/06/14 09:36:02;;;;;;;;;;;;;;;16.21;47.40;100518.84;5059283;28;1144;-57
2023/06/14 09:38:27;;;;;;;;;;;;;;;16.18;47.22;100519.41;5059568;28;1926;-56
2023/06/14 09:40:56;;;;;;;;;;;;;;;16.31;46.82;100523.50;5059544;28;1083;-56
2023/06/14 09:43:21;;;;;;;;;;;;;;;16.19;47.18;100513.63;5059257;28;1048;-56
2023/06/14 09:45:48;;;;;;;;;;;;;;;16.17;47.01;100515.84;5058845;28;1051;-56
2023/06/14 09:48:19;;;;;;;;;;;;;;;16.31;46.63;100515.25;5041124;28;1048;-57
2023/06/14 09:50:48;;;;;;;;;;;;;;;16.24;46.93;100521.03;5059060;28;1052;-56
2023/06/14 09:53:14;;;;;;;;;;;;;;;16.25;46.63;100509.78;5041469;28;1021;-60
2023/06/14 09:55:40;;;;;;;;;;;;;;;16.17;46.73;100515.84;5059069;28;1159;-60
2023/06/14 09:58:06;;;;;;;;;;;;;;;16.15;46.62;100511.75;5058564;28;1906;-60
2023/06/14 10:00:33;;;;;;;;;;;;;;;17.05;48.16;100516.38;5058830;28;1031;-61
2023/06/14 10:03:01;;;;;;;;;;;;;;;16.57;48.76;100507.78;5059036;28;1051;-60
2023/06/14 10:05:28;;;;;;;;;;;;;;;16.51;48.19;100506.13;5058851;28;1080;-59
2023/06/14 10:07:59;;;;;;;;;;;;;;;16.42;47.58;100508.66;5030671;28;1041;-58
2023/06/14 10:10:25;;;;;;;;;;;;;;;16.35;47.55;100511.69;5057233;28;1060;-59
2023/06/14 10:12:50;;;;;;;;;;;;;;;16.34;47.35;100521.03;5040536;28;1098;-59
2023/06/14 10:15:36;;;;;;;;;;;;;;;16.29;47.10;100512.81;5059032;28;1123;-60
2023/06/14 10:18:06;;;;;;;;;;;;;;;16.21;47.05;100511.44;5047542;28;1970;-60
2023/06/14 10:20:37;;;;;;;;;;;;;;;16.30;46.96;100499.88;5041384;28;1036;-58
2023/06/14 10:23:13;;;;;;;;;;;;;;;16.27;46.66;100509.53;5058273;28;1086;-60
2023/06/14 10:25:39;;;;;;;;;;;;;;;16.34;46.49;100507.31;5040669;28;1022;-60
2023/06/14 10:28:17;;;;;;;;;;;;;;;16.16;46.98;100503.22;5058236;28;1122;-60
2023/06/14 10:31:01;;;;;;;;;;;;;;;16.23;46.90;100511.19;5058470;28;1072;-61
2023/06/14 10:33:26;;;;;;;;;;;;;;;16.23;46.64;100509.25;5046678;28;1108;-60
2023/06/14 10:36:06;;;;;;;;;;;;;;;16.24;46.44;100521.03;5040047;28;1135;-60
2023/06/14 10:38:33;;;;;;;;;;;;;;;16.11;46.91;100516.13;5057567;28;1906;-60
2023/06/14 10:40:58;;;;;;;;;;;;;;;16.21;46.77;100518.84;5058145;28;1143;-60
2023/06/14 10:43:24;;;;;;;;;;;;;;;16.45;47.36;100526.47;5040527;28;1140;-61
2023/06/14 10:46:08;;;;;;;;;;;;;;;16.73;48.22;100523.09;5057462;28;1192;-60
2023/06/14 10:48:34;;;;;;;;;;;;;;;16.50;48.27;100518.25;5057476;28;1194;-60
2023/06/14 10:51:01;;;;;;;;;;;;;;;16.37;48.03;100520.47;5040001;28;1442;-62
2023/06/14 10:53:27;;;;;;;;;;;;;;;16.47;47.48;100516.88;5057967;28;1064;-62
2023/06/14 10:55:52;;;;;;;;;;;;;;;16.29;47.46;100529.25;5057967;28;1096;-61
2023/06/14 10:58:18;;;;;;;;;;;;;;;16.31;47.14;100516.06;5057681;28;1902;-62
2023/06/14 11:00:43;;;;;;;;;;;;;;;16.28;46.87;100519.38;5057118;28;1175;-62
2023/06/14 11:03:27;;;;;;;;;;;;;;;16.33;46.93;100519.38;5040177;28;1144;-62
2023/06/14 11:05:53;;;;;;;;;;;;;;;17.10;47.70;100499.88;5045668;28;1052;-62
2023/06/14 11:08:37;;;;;;;;;;;;;;;16.62;48.42;100518.75;5057905;28;1052;-62
2023/06/14 11:11:05;;;;;;;;;;;;;;;16.49;48.12;100527.56;5057475;28;1024;-62
2023/06/14 11:13:31;;;;;;;;;;;;;;;16.43;47.52;100524.00;5057109;28;1116;-62
2023/06/14 11:15:58;;;;;;;;;;;;;;;16.43;47.17;100524.81;5057623;28;1148;-61
2023/06/14 11:18:27;;;;;;;;;;;;;;;16.37;47.34;100519.66;5057264;28;1902;-60
2023/06/14 11:20:52;;;;;;;;;;;;;;;16.35;46.84;100522.66;5057462;28;1124;-59
2023/06/14 11:23:18;;;;;;;;;;;;;;;16.36;46.85;100524.31;5057743;28;1051;-59
2023/06/14 11:25:44;;;;;;;;;;;;;;;16.33;46.88;100522.13;5057277;28;921;-61
2023/06/14 11:28:09;;;;;;;;;;;;;;;16.30;46.82;100524.59;5057593;28;1163;-61
2023/06/14 11:30:34;;;;;;;;;;;;;;;16.28;46.69;100524.88;5056611;28;1091;-62
2023/06/14 11:33:00;;;;;;;;;;;;;;;16.41;48.09;100528.94;5058015;28;1047;-65
2023/06/14 11:35:26;;;;;;;;;;;;;;;16.43;48.40;100529.50;5057419;28;1105;-65
2023/06/14 11:37:57;;;;;;;;;;;;;;;16.41;47.73;100531.69;5056651;28;1968;-60
2023/06/14 11:40:26;;;;;;;;;;;;;;;16.42;47.30;100534.19;5057006;28;1083;-59
2023/06/14 11:42:58;;;;;;;;;;;;;;;16.24;47.12;100527.38;5057259;28;1136;-60
2023/06/14 11:45:24;;;;;;;;;;;;;;;16.27;47.26;100530.63;5056954;28;1160;-57
2023/06/14 11:47:50;;;;;;;;;;;;;;;16.26;46.85;100532.56;5043990;28;1080;-60
2023/06/14 11:50:17;;;;;;;;;;;;;;;16.29;46.63;100533.94;5056435;28;885;-63
2023/06/14 11:52:42;;;;;;;;;;;;;;;16.23;46.80;100522.97;5043940;28;1120;-61
2023/06/14 11:55:08;;;;;;;;;;;;;;;16.38;46.28;100526.75;5056975;28;1151;-61
2023/06/14 11:57:34;;;;;;;;;;;;;;;16.35;47.18;100539.13;5043254;28;1012;-62
2023/06/14 12:00:00;;;;;;;;;;;;;;;16.74;48.37;100530.22;5056707;28;1981;-59
2023/06/14 12:02:27;;;;;;;;;;;;;;;16.53;48.19;100539.63;5055104;28;976;-60
2023/06/14 12:04:53;;;;;;;;;;;;;;;16.49;47.69;100538.53;5056703;28;1112;-58
2023/06/14 12:07:19;;;;;;;;;;;;;;;16.46;47.22;100530.88;5056555;28;1132;-60
2023/06/14 12:09:51;;;;;;;;;;;;;;;16.35;47.24;100532.81;5056535;28;1064;-60
2023/06/14 12:12:17;;;;;;;;;;;;;;;16.38;47.03;100526.75;5056440;28;1136;-58
2023/06/14 12:14:42;;;;;;;;;;;;;;;16.32;46.59;100528.69;5056523;28;1153;-58
2023/06/14 12:17:08;;;;;;;;;;;;;;;16.35;46.40;100533.63;5056535;28;1068;-59
2023/06/14 12:19:33;;;;;;;;;;;;;;;16.33;46.57;100530.34;5056707;28;1906;-58
2023/06/14 12:21:59;;;;;;;;;;;;;;;16.29;46.36;100529.25;5037921;28;1168;-57
2023/06/14 12:24:27;;;;;;;;;;;;;;;16.23;46.41;100524.91;5056134;28;1083;-58
2023/06/14 12:26:53;;;;;;;;;;;;;;;16.28;46.21;100522.13;5056084;28;1119;-54
2023/06/14 12:29:19;;;;;;;;;;;;;;;16.33;46.10;100519.38;5055913;28;1099;-58
2023/06/14 12:31:45;;;;;;;;;;;;;;;16.23;46.06;100522.16;5056361;28;1096;-59
2023/06/14 12:34:10;;;;;;;;;;;;;;;16.36;46.55;100518.81;5056238;28;996;-59
2023/06/14 12:36:41;;;;;;;;;;;;;;;16.90;48.04;100514.53;5055864;28;1118;-59
2023/06/14 12:39:08;;;;;;;;;;;;;;;16.54;48.29;100511.09;5056381;28;1906;-57
2023/06/14 12:41:34;;;;;;;;;;;;;;;16.49;47.55;100511.91;5055847;28;1095;-60
2023/06/14 12:44:01;;;;;;;;;;;;;;;16.35;47.57;100506.19;5055640;28;1175;-57
2023/06/14 12:46:26;;;;;;;;;;;;;;;16.34;47.33;100526.50;5056152;28;1136;-54